Crew | Aerofun Virtual



 METAR AND TAF INFORMATION
METAR FOR EFVA
ADDS - METARS form results

(0819 UTC 22 July 2019)
Data provider http://aviationweather.gov/metar/data/
 
METAR text: EFVA 220750Z AUTO 12006KT 060V160 CAVOK 24/13 Q1014
Conditions at: EFVA (VAASA , FI) observed 0750 UTC 22 July 2019
Temperature: 24.0°C (75°F)
Dewpoint: 13.0°C (55°F) [RH = 50%]
Pressure (altimeter): 29.94 inches Hg (1014.0 mb)
Winds: from the ESE (120 degrees) at 7 MPH (6 knots; 3.1 m/s)
Visibility: 6 or more miles (10+ km)
Ceiling: ceiling and visibility are OK
Clouds: unknown
Weather: no significant weather observed at this time

METAR text: EFVA 220720Z AUTO 10004KT 060V140 CAVOK 23/14 Q1014
Conditions at: EFVA (VAASA , FI) observed 0720 UTC 22 July 2019
Temperature: 23.0°C (73°F)
Dewpoint: 14.0°C (57°F) [RH = 57%]
Pressure (altimeter): 29.94 inches Hg (1014.0 mb)
Winds: from the E (100 degrees) at 5 MPH (4 knots; 2.1 m/s)
Visibility: 6 or more miles (10+ km)
Ceiling: ceiling and visibility are OK
Clouds: unknown
Weather: no significant weather observed at this time

Forecast for: EFVA (VAASA , FI)
Text: TAF EFVA 220533Z 2206/2306 11002KT CAVOK
Forecast period: 0600 UTC 22 July 2019 to 0600 UTC 23 July 2019
Forecast type: FROM: standard forecast or significant change
Winds: from the ESE (110 degrees) at 2 MPH (2 knots; 1.0 m/s)
Visibility: 6 or more miles 10+ km)
Ceiling: unknown
Clouds: missing
Weather: NSW  (no significant weather)
Text: TEMPO 2209/2213 FEW060TCU
Forecast period: 0900 to 1300 UTC 22 July 2019
Forecast type: TEMPORARY: The following changes expected for less than half the time period
Visibility: missing
Ceiling: at least 12,000 feet AGL
Clouds: few clouds at 6000 feet AGL
Weather: no significant weather forecast for this period

 AIRPORT MAP

 RUNWAY INFORMATION
Runway 16 Runway length 8727 ft Runway width 157 ft
Runway elevation 19 ft Runway displaced threshold 0 ft Runway heading 163
Runway 34 Runway length 8727 ft Runway width 157 ft
Runway elevation 11 ft Runway displaced threshold 525 ft Runway heading 343

 AIRPORT FREQUENCIES
Type ATIS Name ATIS Frequency 114.5 MHZ
Type TWR Name TWR Frequency 119.3 MHZ

 AIRPORT NEAR NAVIGATION AIDS
Type VOR-DME Name Vaasa Frequency 114500 KHZ